Time;durP1;ratioP1;P1;durP2;ratioP2;P2;SDS_P1;SDS_P2;PMS_P1;PMS_P2;Temp;Humidity;BMP_temperature;BMP_pressure;BME280_temperature;BME280_humidity;BME280_pressure;Samples;Min_cycle;Max_cycle;Signal;HPM_P1;HPM_P2
2023/10/07 00:02:18;;;;;;;3.20;0.70;;;;;;;14.03;100.00;98477.38;109517;1281;100525;-62
2023/10/07 00:04:47;;;;;;;1.10;0.80;;;;;;;14.05;100.00;98475.85;109554;1281;22305;-61
2023/10/07 00:07:16;;;;;;;1.70;0.70;;;;;;;14.08;100.00;98475.45;109595;1280;22068;-62
2023/10/07 00:09:44;;;;;;;1.90;0.70;;;;;;;14.12;100.00;98460.75;109514;1280;99415;-62
2023/10/07 00:12:19;;;;;;;1.40;0.60;;;;;;;14.15;100.00;98453.88;109597;1277;22449;-62
2023/10/07 00:14:49;;;;;;;1.60;0.90;;;;;;;14.17;100.00;98456.83;109484;1283;99632;-61
2023/10/07 00:17:21;;;;;;;1.70;0.80;;;;;;;14.19;100.00;98448.50;109577;1271;22298;-62
2023/10/07 00:19:49;;;;;;;1.40;0.70;;;;;;;14.19;100.00;98437.78;109497;1280;23514;-64
2023/10/07 00:22:19;;;;;;;2.80;0.90;;;;;;;14.21;100.00;98439.60;109465;1281;100499;-62
2023/10/07 00:24:48;;;;;;;1.50;0.90;;;;;;;14.22;100.00;98434.56;109589;1280;22138;-62
2023/10/07 00:27:28;;;;;;;2.20;0.80;;;;;;;14.25;100.00;98439.40;109479;1279;100253;-62
2023/10/07 00:29:59;;;;;;;1.10;0.70;;;;;;;14.28;100.00;98423.20;109526;1279;22990;-62
2023/10/07 00:32:28;;;;;;;3.60;1.20;;;;;;;14.29;100.00;98425.92;109478;1280;100133;-63
2023/10/07 00:34:59;;;;;;;1.30;0.70;;;;;;;14.29;100.00;98426.09;109580;1280;22176;-63
2023/10/07 00:37:33;;;;;;;1.20;0.60;;;;;;;14.30;100.00;98415.51;109555;1281;22575;-63
2023/10/07 00:40:14;;;;;;;2.00;0.70;;;;;;;14.32;100.00;98401.20;109471;1280;99371;-63
2023/10/07 00:42:45;;;;;;;2.30;0.60;;;;;;;14.34;100.00;98388.75;109530;1279;22225;-63
2023/10/07 00:45:16;;;;;;;3.30;1.00;;;;;;;14.36;100.00;98392.77;109487;1280;101449;-62
2023/10/07 00:47:49;;;;;;;0.90;0.70;;;;;;;14.39;100.00;98388.37;109570;1281;22279;-63
2023/10/07 00:50:20;;;;;;;4.00;0.60;;;;;;;14.41;100.00;98378.88;109471;1280;99503;-63
2023/10/07 00:52:56;;;;;;;1.20;0.70;;;;;;;14.43;100.00;98389.77;109575;1280;23062;-64
2023/10/07 00:55:36;;;;;;;2.80;0.70;;;;;;;14.45;100.00;98386.73;109562;1280;22324;-63
2023/10/07 00:58:21;;;;;;;0.60;0.50;;;;;;;14.50;100.00;98380.00;109447;1283;100271;-63
2023/10/07 01:00:49;;;;;;;3.00;0.50;;;;;;;14.53;100.00;98381.05;109554;1277;22262;-64
2023/10/07 01:08:27;;;;;;;2.40;0.70;;;;;;;14.57;100.00;98365.15;109485;1280;100035;-63
2023/10/07 01:11:46;;;;;;;2.60;0.70;;;;;;;14.59;100.00;98367.46;109537;1280;22156;-65
2023/10/07 01:13:49;;;;;;;1.00;0.60;;;;;;;14.58;100.00;98360.50;109502;1279;22107;-63
2023/10/07 01:16:28;;;;;;;2.50;0.70;;;;;;;14.62;100.00;98364.70;109437;1280;100096;-65
2023/10/07 01:19:05;;;;;;;1.80;0.70;;;;;;;14.63;100.00;98362.71;109564;1280;22108;-65
2023/10/07 01:21:33;;;;;;;1.70;0.70;;;;;;;14.65;100.00;98367.95;109428;1287;99945;-66
2023/10/07 01:24:06;;;;;;;2.80;0.90;;;;;;;14.64;100.00;98354.77;109482;1280;22244;-66
2023/10/07 01:26:41;;;;;;;2.00;0.70;;;;;;;14.63;100.00;98354.98;109456;1280;100167;-65
2023/10/07 01:29:16;;;;;;;2.50;0.70;;;;;;;14.65;100.00;98348.52;109578;1284;22416;-63
2023/10/07 01:32:03;;;;;;;2.20;0.70;;;;;;;14.67;100.00;98327.02;109574;1279;22347;-64
2023/10/07 01:34:35;;;;;;;;;;;;;;;14.68;100.00;98314.46;109642;1283;23685;-63
2023/10/07 01:37:08;;;;;;;1.80;0.50;;;;;;;14.70;100.00;98284.17;109536;1280;22320;-64
2023/10/07 01:39:42;;;;;;;2.20;0.40;;;;;;;14.69;100.00;98262.42;109490;1280;100855;-63
2023/10/07 01:42:22;;;;;;;2.10;0.70;;;;;;;14.68;100.00;98246.04;109596;1279;22153;-64
2023/10/07 01:44:56;;;;;;;3.50;1.20;;;;;;;14.69;100.00;98257.27;109528;1283;100797;-65
2023/10/07 01:47:25;;;;;;;1.40;0.50;;;;;;;14.69;100.00;98249.78;109566;1280;23281;-64
2023/10/07 01:49:55;;;;;;;3.40;0.50;;;;;;;14.72;100.00;98251.39;109515;1280;22425;-63
2023/10/07 01:52:28;;;;;;;1.20;0.70;;;;;;;14.78;100.00;98237.18;109491;1286;100299;-65
2023/10/07 01:54:58;;;;;;;1.60;0.30;;;;;;;14.85;100.00;98251.17;109567;1287;22160;-64
2023/10/07 01:57:27;;;;;;;1.20;0.50;;;;;;;14.87;100.00;98246.41;109475;1279;100499;-64
2023/10/07 01:59:58;;;;;;;1.20;0.40;;;;;;;14.91;100.00;98247.11;109556;1274;22184;-63
2023/10/07 02:02:26;;;;;;;1.10;0.60;;;;;;;14.93;100.00;98239.70;109476;1278;99878;-64
2023/10/07 02:04:55;;;;;;;2.70;0.70;;;;;;;14.95;100.00;98250.70;109585;1279;23402;-64
2023/10/07 02:07:23;;;;;;;2.40;0.20;;;;;;;14.99;100.00;98252.36;109615;1279;22527;-64
2023/10/07 02:09:54;;;;;;;1.10;0.30;;;;;;;15.04;100.00;98268.77;109527;1280;99701;-65
2023/10/07 02:12:24;;;;;;;1.00;0.60;;;;;;;15.08;100.00;98271.60;109583;1280;22469;-64
2023/10/07 02:14:53;;;;;;;1.30;0.40;;;;;;;15.10;100.00;98280.65;109546;1279;100255;-66
2023/10/07 02:17:25;;;;;;;1.40;0.30;;;;;;;15.14;100.00;98283.50;109590;1274;22292;-64
2023/10/07 02:19:57;;;;;;;2.00;0.40;;;;;;;15.17;100.00;98265.31;109577;1280;22234;-65
2023/10/07 02:22:28;;;;;;;0.60;0.50;;;;;;;15.20;100.00;98259.63;109495;1283;100315;-64
2023/10/07 02:25:04;;;;;;;5.90;0.80;;;;;;;15.24;100.00;98255.73;109598;1280;22460;-65
2023/10/07 02:27:41;;;;;;;2.40;0.30;;;;;;;15.26;100.00;98242.94;109496;1276;100007;-64
2023/10/07 02:30:19;;;;;;;;;;;;;;;15.29;100.00;98254.10;109614;1280;23813;-65
2023/10/07 02:32:48;;;;;;;2.00;0.50;;;;;;;15.30;100.00;98248.87;109544;1280;86456;-66
2023/10/07 02:35:19;;;;;;;1.40;0.40;;;;;;;15.32;100.00;98234.19;109615;1280;22573;-65
2023/10/07 02:37:49;;;;;;;0.50;0.30;;;;;;;15.32;100.00;98240.80;109592;1280;22254;-66
2023/10/07 02:40:35;;;;;;;2.60;0.50;;;;;;;15.34;100.00;98231.31;109502;1280;100820;-65
2023/10/07 02:43:10;;;;;;;1.10;0.60;;;;;;;15.33;100.00;98216.87;109619;1276;22349;-64
2023/10/07 02:45:39;;;;;;;1.80;0.20;;;;;;;15.34;100.00;98231.29;109515;1280;99830;-64
2023/10/07 02:48:10;;;;;;;1.20;0.30;;;;;;;15.34;100.00;98233.06;109630;1280;23307;-64
2023/10/07 02:50:40;;;;;;;0.80;0.40;;;;;;;15.36;100.00;98236.79;109525;1283;100982;-64
2023/10/07 02:53:16;;;;;;;1.30;0.30;;;;;;;15.37;100.00;98229.11;109632;1280;22918;-63
2023/10/07 02:55:54;;;;;;;1.10;0.30;;;;;;;15.38;100.00;98237.46;109648;1279;22073;-64
2023/10/07 02:58:49;;;;;;;0.50;0.20;;;;;;;15.39;100.00;98221.37;109498;1280;98090;-65
2023/10/07 03:01:25;;;;;;;1.00;0.50;;;;;;;15.36;100.00;98208.92;109602;1280;22269;-65
2023/10/07 03:03:54;;;;;;;0.70;0.50;;;;;;;15.34;100.00;98229.70;109610;1280;99916;-64
2023/10/07 03:06:28;;;;;;;2.10;0.60;;;;;;;15.35;100.00;98228.77;109628;1283;22166;-64
2023/10/07 03:09:18;;;;;;;3.00;0.50;;;;;;;15.36;100.00;98226.28;109517;1276;100191;-65
2023/10/07 03:11:50;;;;;;;1.60;0.50;;;;;;;15.36;100.00;98232.50;109657;1280;22462;-65
2023/10/07 03:14:25;;;;;;;2.70;0.60;;;;;;;15.37;100.00;98234.56;109559;1279;101310;-65
2023/10/07 03:16:59;;;;;;;3.00;0.30;;;;;;;15.37;100.00;98223.16;109517;1283;22493;-66
2023/10/07 03:19:48;;;;;;;1.20;0.30;;;;;;;15.36;100.00;98210.47;109639;1280;23459;-64
2023/10/07 03:22:16;;;;;;;1.70;0.50;;;;;;;15.37;100.00;98225.44;109551;1280;100371;-65
2023/10/07 03:24:54;;;;;;;2.10;0.40;;;;;;;15.37;100.00;98221.60;109628;1280;23276;-65
2023/10/07 03:27:25;;;;;;;6.60;1.20;;;;;;;15.31;100.00;98212.50;109547;1280;100414;-64
2023/10/07 03:30:07;;;;;;;1.90;0.40;;;;;;;15.30;100.00;98231.38;109629;1280;22097;-65
2023/10/07 03:32:54;;;;;;;1.60;0.40;;;;;;;15.29;100.00;98224.57;109533;1280;100535;-64
2023/10/07 03:38:10;;;;;;;3.20;0.40;;;;;;;15.28;100.00;98225.58;109501;1280;99944;-64
2023/10/07 03:40:38;;;;;;;2.40;0.40;;;;;;;15.26;100.00;98223.61;109607;1280;22248;-65
2023/10/07 03:43:08;;;;;;;3.10;1.10;;;;;;;15.24;100.00;98230.54;109627;1276;22381;-65
2023/10/07 03:45:39;;;;;;;5.80;1.10;;;;;;;15.19;100.00;98244.25;109536;1279;100981;-65
2023/10/07 03:48:23;;;;;;;7.50;0.80;;;;;;;15.15;100.00;98230.92;109622;1280;22175;-64
2023/10/07 03:51:07;;;;;;;5.80;1.00;;;;;;;15.13;100.00;98238.48;109544;1280;99927;-66
2023/10/07 03:53:44;;;;;;;3.30;0.80;;;;;;;15.11;100.00;98240.77;109643;1280;22080;-64
2023/10/07 03:56:14;;;;;;;3.00;0.70;;;;;;;15.13;100.00;98253.59;109472;1276;99860;-65
2023/10/07 03:58:43;;;;;;;3.20;0.90;;;;;;;15.11;100.00;98247.44;109606;1281;22291;-64
2023/10/07 04:01:19;;;;;;;4.60;1.20;;;;;;;15.04;100.00;98250.20;109627;1276;22390;-64
2023/10/07 04:03:50;;;;;;;6.60;0.70;;;;;;;14.97;100.00;98250.74;109524;1279;100697;-64
2023/10/07 04:06:20;;;;;;;4.70;1.60;;;;;;;14.93;100.00;98260.20;109600;1280;22321;-64
2023/10/07 04:08:56;;;;;;;3.10;0.60;;;;;;;14.89;100.00;98265.17;109548;1279;99940;-64
2023/10/07 04:11:28;;;;;;;3.30;0.70;;;;;;;14.81;100.00;98268.80;109533;1280;22321;-65
2023/10/07 04:13:56;;;;;;;5.00;0.90;;;;;;;14.75;100.00;98264.98;109527;1280;22305;-63
2023/10/07 04:16:25;;;;;;;4.60;1.30;;;;;;;14.70;100.00;98273.70;109537;1280;100130;-63
2023/10/07 04:19:09;;;;;;;4.90;1.00;;;;;;;14.67;100.00;98283.03;109594;1280;22339;-64
2023/10/07 04:21:39;;;;;;;5.30;1.50;;;;;;;14.66;100.00;98292.08;109477;1280;99569;-64
2023/10/07 04:24:10;;;;;;;5.50;1.10;;;;;;;14.61;100.00;98294.83;109609;1280;22843;-64
2023/10/07 04:26:42;;;;;;;7.00;1.20;;;;;;;14.57;100.00;98305.45;109511;1280;100480;-64
2023/10/07 04:29:17;;;;;;;4.80;1.10;;;;;;;14.50;100.00;98307.54;109619;1267;22136;-63
2023/10/07 04:31:53;;;;;;;5.80;1.00;;;;;;;14.41;100.00;98331.30;109601;1280;22176;-63
2023/10/07 04:34:22;;;;;;;5.40;1.20;;;;;;;14.32;100.00;98329.58;109531;1283;99570;-63
2023/10/07 04:39:37;;;;;;;3.80;0.80;;;;;;;14.27;100.00;98335.95;109535;1273;101150;-63
2023/10/07 04:42:06;;;;;;;5.50;1.30;;;;;;;14.24;99.98;98340.29;109662;1280;22154;-63
2023/10/07 04:52:40;;;;;;;5.80;1.40;;;;;;;14.09;99.28;98351.27;109617;1279;22641;-63
2023/10/07 04:55:19;;;;;;;4.80;0.90;;;;;;;14.04;99.06;98357.79;109604;1279;22356;-63
2023/10/07 05:03:14;;;;;;;7.90;1.00;;;;;;;13.95;98.54;98369.23;109545;1276;99692;-63
2023/10/07 05:05:44;;;;;;;5.50;1.10;;;;;;;13.93;98.45;98373.45;109620;1276;22804;-63
2023/10/07 05:08:17;;;;;;;7.00;1.20;;;;;;;13.92;98.35;98371.13;109493;1286;100332;-63
2023/10/07 05:10:52;;;;;;;7.90;1.50;;;;;;;13.88;98.13;98378.92;109633;1280;22334;-62
2023/10/07 05:13:21;;;;;;;4.20;1.20;;;;;;;13.84;98.00;98381.58;109649;1279;22931;-63
2023/10/07 05:15:49;;;;;;;5.50;1.00;;;;;;;13.79;97.74;98384.59;109498;1280;101335;-63
2023/10/07 05:18:18;;;;;;;6.20;2.60;;;;;;;13.74;97.55;98382.17;109625;1280;22194;-62
2023/10/07 05:20:51;;;;;;;3.20;0.80;;;;;;;13.71;97.32;98376.67;109518;1279;100057;-62
2023/10/07 05:23:19;;;;;;;4.80;1.30;;;;;;;13.67;97.16;98389.91;109586;1283;22285;-62
2023/10/07 05:25:48;;;;;;;5.70;1.20;;;;;;;13.63;96.92;98383.08;109565;1280;22302;-64
2023/10/07 05:28:22;;;;;;;6.00;1.10;;;;;;;13.58;96.65;98394.48;109529;1280;99735;-62
2023/10/07 05:30:51;;;;;;;6.90;1.10;;;;;;;13.55;96.36;98393.13;109698;1279;22310;-64
2023/10/07 05:33:25;;;;;;;4.80;0.90;;;;;;;13.50;95.91;98399.48;109623;1280;99725;-66
2023/10/07 05:36:00;;;;;;;4.40;0.80;;;;;;;13.49;95.88;98402.33;109684;1279;22465;-66
2023/10/07 05:38:30;;;;;;;4.00;0.70;;;;;;;13.49;95.71;98405.40;109602;1280;100133;-65
2023/10/07 05:41:00;;;;;;;5.80;1.90;;;;;;;13.47;95.45;98404.09;109674;1278;22268;-65
2023/10/07 05:43:29;;;;;;;43.20;23.20;;;;;;;13.49;95.29;98408.70;109692;1280;22170;-64
2023/10/07 05:45:58;;;;;;;15.90;7.40;;;;;;;13.50;95.15;98420.12;109777;1279;101037;-65
2023/10/07 05:48:27;;;;;;;6.90;2.00;;;;;;;13.51;94.99;98425.78;109886;1280;22485;-65
2023/10/07 05:50:57;;;;;;;4.60;1.30;;;;;;;13.49;94.83;98425.98;109829;1279;100879;-65
2023/10/07 05:53:25;;;;;;;5.30;0.90;;;;;;;13.48;94.65;98419.74;109898;1280;22969;-64
2023/10/07 05:55:54;;;;;;;3.50;0.60;;;;;;;13.46;94.41;98430.59;109903;1279;22320;-64
2023/10/07 05:58:23;;;;;;;9.30;7.60;;;;;;;13.46;94.24;98437.41;109822;1280;99531;-65
2023/10/07 06:00:51;;;;;;;10.40;5.70;;;;;;;13.43;94.02;98435.17;109885;1280;22275;-65
2023/10/07 06:03:25;;;;;;;10.30;5.50;;;;;;;13.32;94.24;98432.21;109816;1279;101180;-65
2023/10/07 06:05:57;;;;;;;20.00;13.20;;;;;;;13.27;94.21;98428.47;109910;1280;22185;-64
2023/10/07 06:08:27;;;;;;;18.30;9.50;;;;;;;13.29;94.02;98425.30;109771;1279;100387;-65
2023/10/07 06:10:57;;;;;;;12.10;3.50;;;;;;;13.32;94.00;98427.15;109871;1279;22272;-67
2023/10/07 06:13:27;;;;;;;7.50;3.90;;;;;;;13.35;93.87;98441.21;109734;1279;268722;-66
2023/10/07 06:15:57;;;;;;;16.70;8.90;;;;;;;13.39;93.83;98444.98;109836;1276;98917;-66
2023/10/07 06:18:26;;;;;;;6.60;2.20;;;;;;;13.39;93.49;98437.27;109851;1279;22456;-62
2023/10/07 06:21:00;;;;;;;12.90;6.20;;;;;;;13.39;93.51;98434.48;109677;1273;99834;-62
2023/10/07 06:23:30;;;;;;;61.50;32.40;;;;;;;13.34;93.67;98445.15;109862;1273;22274;-61
2023/10/07 06:26:03;;;;;;;19.20;9.70;;;;;;;13.34;93.69;98450.62;109897;1280;22953;-68
2023/10/07 06:28:35;;;;;;;19.30;12.10;;;;;;;13.35;93.57;98447.71;109889;1280;22114;-65
2023/10/07 06:31:11;;;;;;;5.80;2.30;;;;;;;13.40;93.47;98456.77;109862;1279;22225;-65
2023/10/07 06:33:43;;;;;;;5.50;1.50;;;;;;;13.47;93.51;98458.84;109753;1280;99947;-60
2023/10/07 06:36:12;;;;;;;24.00;12.20;;;;;;;13.51;93.54;98467.56;109818;1280;22313;-61
2023/10/07 06:38:52;;;;;;;17.00;10.30;;;;;;;13.61;93.51;98472.36;109803;1280;100864;-64
2023/10/07 06:41:21;;;;;;;8.40;2.60;;;;;;;13.71;93.57;98477.17;109805;1276;22314;-65
2023/10/07 06:43:59;;;;;;;10.90;5.00;;;;;;;13.84;93.63;98484.95;109854;1279;22355;-64
2023/10/07 06:46:40;;;;;;;9.30;2.80;;;;;;;13.87;93.22;98485.34;109744;1279;99101;-64
2023/10/07 06:49:18;;;;;;;3.50;1.40;;;;;;;13.91;93.33;98497.79;109823;1280;22302;-64
2023/10/07 06:51:52;;;;;;;5.70;2.30;;;;;;;13.95;93.36;98490.80;109734;1280;99813;-62
2023/10/07 06:54:32;;;;;;;4.10;1.50;;;;;;;14.08;93.40;98511.13;109720;1280;22309;-65
2023/10/07 06:57:08;;;;;;;3.10;0.70;;;;;;;14.20;93.61;98513.84;109708;1279;98261;-63
2023/10/07 06:59:40;;;;;;;7.50;1.80;;;;;;;14.30;93.29;98516.01;109881;1280;22174;-62
2023/10/07 07:02:11;;;;;;;4.20;1.00;;;;;;;14.37;93.35;98527.12;109684;1279;99727;-69
2023/10/07 07:04:41;;;;;;;8.50;1.00;;;;;;;14.44;92.94;98527.09;109712;1280;23074;-67
2023/10/07 07:07:16;;;;;;;4.40;1.20;;;;;;;14.47;92.75;98536.15;109564;1279;23208;-66
2023/10/07 07:12:23;;;;;;;4.50;1.30;;;;;;;14.42;92.46;98551.79;109721;1281;22425;-68
2023/10/07 07:14:52;;;;;;;5.40;1.20;;;;;;;14.48;92.64;98555.86;109701;1276;99095;-67
2023/10/07 07:17:30;;;;;;;4.40;1.20;;;;;;;14.55;92.58;98556.88;109754;1280;23863;-66
2023/10/07 07:22:47;;;;;;;12.10;5.40;;;;;;;14.70;92.35;98578.93;109789;1279;23065;-61
2023/10/07 07:25:23;;;;;;;23.00;10.90;;;;;;;14.66;92.18;98575.96;109762;1281;22145;-64
2023/10/07 07:27:52;;;;;;;6.60;1.90;;;;;;;14.68;91.96;98588.53;109701;1280;100585;-63
2023/10/07 07:30:30;;;;;;;64.30;32.30;;;;;;;14.74;92.02;98594.20;109841;1280;22057;-63
2023/10/07 07:33:28;;;;;;;242.60;72.90;;;;;;;14.83;91.65;98603.75;109729;1273;99913;-61
2023/10/07 07:35:56;;;;;;;69.50;36.30;;;;;;;14.92;91.36;98605.14;109797;1279;22118;-62
2023/10/07 07:38:32;;;;;;;29.20;15.40;;;;;;;14.97;91.25;98607.13;109695;1279;102282;-63
2023/10/07 07:41:08;;;;;;;11.60;8.50;;;;;;;14.95;90.85;98623.98;109862;1279;22165;-62
2023/10/07 07:43:43;;;;;;;11.90;6.20;;;;;;;14.97;90.72;98620.27;109822;1279;22413;-61
2023/10/07 07:46:51;;;;;;;8.10;4.80;;;;;;;15.03;90.81;98618.80;109733;1279;99891;-61
2023/10/07 07:49:27;;;;;;;5.00;1.40;;;;;;;15.22;90.71;98632.97;109745;1279;22411;-62
2023/10/07 07:51:57;;;;;;;4.00;1.20;;;;;;;15.36;90.80;98629.52;109755;1279;99757;-62
2023/10/07 07:54:26;;;;;;;4.70;1.00;;;;;;;15.64;90.52;98629.78;109850;1280;23035;-62
2023/10/07 07:56:55;;;;;;;8.10;1.60;;;;;;;15.76;90.07;98643.33;109756;1284;99156;-65
2023/10/07 07:59:24;;;;;;;4.70;1.50;;;;;;;15.73;89.51;98650.13;109829;1279;23030;-63
2023/10/07 08:02:02;;;;;;;4.50;1.40;;;;;;;15.70;89.69;98650.16;109817;1280;22288;-62
2023/10/07 08:04:49;;;;;;;8.60;1.20;;;;;;;16.06;90.22;98657.94;109755;1267;98917;-62
2023/10/07 08:07:23;;;;;;;4.20;0.90;;;;;;;16.37;89.68;98661.92;109849;1279;22173;-63
2023/10/07 08:09:53;;;;;;;4.60;1.10;;;;;;;16.38;89.09;98674.82;109732;1280;99175;-63
2023/10/07 08:12:36;;;;;;;5.40;1.80;;;;;;;16.21;88.40;98685.91;109859;1280;22290;-63
2023/10/07 08:17:37;;;;;;;2.40;0.80;;;;;;;16.10;88.32;98706.02;109875;1280;22154;-66
2023/10/07 08:20:10;;;;;;;8.40;1.70;;;;;;;15.93;87.83;98714.14;109816;1280;22172;-59
2023/10/07 08:22:45;;;;;;;3.10;0.80;;;;;;;15.96;88.30;98703.23;109834;1280;22148;-64
2023/10/07 08:25:26;;;;;;;4.10;0.80;;;;;;;16.20;88.01;98715.85;109843;1279;22096;-60
2023/10/07 08:27:55;;;;;;;4.70;1.40;;;;;;;16.18;87.40;98714.62;109716;1279;99285;-60
2023/10/07 08:30:37;;;;;;;3.70;0.70;;;;;;;16.04;87.33;98728.52;109844;1279;22176;-59
2023/10/07 08:33:06;;;;;;;3.00;0.60;;;;;;;16.36;87.95;98737.69;109807;1279;100201;-66
2023/10/07 08:35:35;;;;;;;3.00;0.60;;;;;;;17.00;88.28;98743.34;109858;1280;22221;-68
2023/10/07 08:38:19;;;;;;;3.50;0.70;;;;;;;17.98;87.96;98749.20;109831;1279;22290;-64
2023/10/07 08:40:59;;;;;;;2.10;0.50;;;;;;;18.76;87.42;98755.67;109851;1279;22183;-67
2023/10/07 08:43:37;;;;;;;1.80;0.90;;;;;;;19.76;88.32;98761.98;109821;1279;22240;-61
2023/10/07 08:46:12;;;;;;;11.40;1.40;;;;;;;21.92;89.15;98765.61;109744;1279;99503;-70
2023/10/07 08:48:47;;;;;;;4.60;0.70;;;;;;;23.85;87.08;98760.67;109785;1280;23137;-57
2023/10/07 08:51:22;;;;;;;4.20;0.70;;;;;;;24.74;85.87;98765.20;109754;1271;101169;-62
2023/10/07 08:54:07;;;;;;;5.80;1.10;;;;;;;25.82;84.16;98772.11;109814;1279;22308;-61
2023/10/07 08:56:38;;;;;;;1.40;0.30;;;;;;;25.09;81.72;98780.66;109772;1279;99344;-61
2023/10/07 08:59:07;;;;;;;2.60;0.30;;;;;;;23.80;79.49;98780.20;109842;1280;22227;-61
2023/10/07 09:01:36;;;;;;;2.50;0.50;;;;;;;24.11;81.87;98780.01;109834;1283;23078;-66
2023/10/07 09:04:08;;;;;;;3.50;0.80;;;;;;;25.98;80.97;98780.39;109771;1279;99204;-62
2023/10/07 09:06:45;;;;;;;3.00;0.70;;;;;;;26.51;77.19;98789.63;109824;1280;23535;-64
2023/10/07 09:09:14;;;;;;;1.00;0.30;;;;;;;25.32;75.51;98801.88;109741;1279;101019;-64
2023/10/07 09:11:48;;;;;;;2.50;0.40;;;;;;;25.63;77.38;98812.08;109810;1275;22251;-63
2023/10/07 09:14:18;;;;;;;2.50;0.50;;;;;;;26.88;74.70;98814.59;109723;1280;99979;-62
2023/10/07 09:16:49;;;;;;;1.30;0.50;;;;;;;27.35;74.55;98819.08;109825;1279;22031;-63
2023/10/07 09:19:20;;;;;;;1.30;0.60;;;;;;;28.37;74.95;98828.95;109857;1273;23003;-63
2023/10/07 09:21:57;;;;;;;0.30;0.10;;;;;;;29.63;73.99;98838.15;109722;1279;98277;-62
2023/10/07 09:24:26;;;;;;;0.80;0.20;;;;;;;30.46;70.50;98844.04;109849;1279;22988;-64
2023/10/07 09:26:56;;;;;;;0.50;0.30;;;;;;;31.01;70.59;98847.47;109781;1280;99327;-65
2023/10/07 09:29:29;;;;;;;1.70;0.30;;;;;;;32.04;69.36;98848.11;109804;1280;23297;-64
2023/10/07 09:32:04;;;;;;;2.90;0.80;;;;;;;33.23;68.02;98851.11;109846;1280;22302;-63
2023/10/07 09:34:47;;;;;;;1.50;0.80;;;;;;;33.63;64.66;98845.84;109802;1279;101013;-66
2023/10/07 09:37:26;;;;;;;0.30;0.20;;;;;;;33.39;62.46;98850.59;109858;1280;22315;-65
2023/10/07 09:39:55;;;;;;;0.60;0.20;;;;;;;33.58;61.06;98860.96;109737;1279;99700;-67
2023/10/07 09:42:27;;;;;;;0.90;0.20;;;;;;;33.69;58.87;98866.80;109874;1279;22166;-68
2023/10/07 09:47:38;;;;;;;0.90;0.50;;;;;;;34.62;54.39;98877.88;109859;1279;22139;-68
2023/10/07 09:50:19;;;;;;;0.70;0.30;;;;;;;35.21;52.57;98883.98;109856;1280;22167;-68
2023/10/07 09:53:14;;;;;;;0.60;0.30;;;;;;;36.28;51.60;98888.57;109873;1279;22167;-68
2023/10/07 09:55:49;;;;;;;0.40;0.20;;;;;;;37.29;48.58;98895.65;109889;1286;22148;-67
2023/10/07 09:58:37;;;;;;;0.40;0.20;;;;;;;37.71;45.90;98896.80;109788;1279;99708;-71
2023/10/07 10:01:38;;;;;;;1.10;0.40;;;;;;;37.71;43.89;98900.83;109862;1280;22306;-65
2023/10/07 10:04:43;;;;;;;0.60;0.20;;;;;;;37.72;40.40;98894.23;109452;1284;99176;-71
2023/10/07 10:07:33;;;;;;;0.50;0.20;;;;;;;37.46;37.15;98897.89;109574;1283;22153;-68
2023/10/07 10:10:13;;;;;;;1.60;0.40;;;;;;;37.73;35.83;98894.63;109454;1286;99807;-72
2023/10/07 10:12:56;;;;;;;0.60;0.30;;;;;;;38.23;34.61;98901.65;109503;1283;24285;-65
2023/10/07 10:21:09;;;;;;;0.60;0.30;;;;;;;39.80;31.86;98897.20;109455;1283;99499;-61
2023/10/07 10:23:44;;;;;;;0.10;0.10;;;;;;;39.68;31.10;98913.87;109558;1283;22233;-65
2023/10/07 10:26:33;;;;;;;1.70;0.40;;;;;;;39.91;29.71;98919.54;109286;1286;23303;-69
2023/10/07 10:29:15;;;;;;;0.50;0.40;;;;;;;39.48;28.29;98928.61;109387;1284;22362;-65
2023/10/07 10:31:52;;;;;;;0.40;0.30;;;;;;;38.66;27.54;98937.89;109274;1283;22326;-65
2023/10/07 10:34:21;;;;;;;1.10;0.60;;;;;;;38.68;27.30;98930.67;109331;1283;99157;-64
2023/10/07 10:36:50;;;;;;;0.60;0.30;;;;;;;38.74;26.68;98934.21;109234;1286;22410;-67
2023/10/07 10:39:27;;;;;;;0.30;0.30;;;;;;;38.10;25.51;98935.27;109405;1283;99419;-63
2023/10/07 10:42:13;;;;;;;0.40;0.20;;;;;;;37.57;25.29;98945.30;109634;1280;22963;-62
2023/10/07 10:44:48;;;;;;;0.70;0.20;;;;;;;38.01;25.03;98961.27;109707;1277;99835;-63
2023/10/07 10:47:21;;;;;;;0.30;0.20;;;;;;;38.10;24.62;98959.92;109759;1280;22165;-63
2023/10/07 10:49:54;;;;;;;0.50;0.30;;;;;;;38.23;24.74;98957.90;109777;1280;22342;-62
2023/10/07 10:52:24;;;;;;;0.40;0.20;;;;;;;38.49;24.23;98952.14;109702;1280;99793;-60
2023/10/07 10:54:53;;;;;;;1.00;0.40;;;;;;;39.07;24.40;98954.11;109781;1279;22875;-62
2023/10/07 10:57:24;;;;;;;0.90;0.20;;;;;;;39.46;23.91;98957.31;109706;1280;99255;-61
2023/10/07 10:59:53;;;;;;;0.40;0.30;;;;;;;39.70;23.82;98960.23;109761;1281;22464;-62
2023/10/07 11:02:22;;;;;;;0.70;0.40;;;;;;;40.12;23.68;98966.38;109589;1280;99350;-62
2023/10/07 11:04:55;;;;;;;1.30;0.30;;;;;;;40.16;22.90;98965.44;109783;1279;22124;-63
2023/10/07 11:07:25;;;;;;;1.00;0.50;;;;;;;39.95;22.39;98962.46;109730;1280;22931;-61
2023/10/07 11:09:54;;;;;;;0.60;0.40;;;;;;;39.74;21.98;98968.92;109549;1280;99541;-63
2023/10/07 11:12:27;;;;;;;0.40;0.30;;;;;;;39.91;21.81;98969.38;109787;1280;22124;-62
2023/10/07 11:15:14;;;;;;;0.50;0.30;;;;;;;40.19;21.68;98970.71;109639;1280;99484;-63
2023/10/07 11:18:13;;;;;;;0.30;0.20;;;;;;;40.26;21.17;98977.51;109660;1280;22304;-62
2023/10/07 11:20:43;;;;;;;0.30;0.30;;;;;;;40.66;20.97;98976.89;109671;1280;99318;-63
2023/10/07 11:23:16;;;;;;;0.40;0.40;;;;;;;41.29;20.90;98976.95;109778;1280;22300;-62
2023/10/07 11:25:44;;;;;;;0.80;0.40;;;;;;;41.53;20.77;98976.16;109770;1280;22983;-63
2023/10/07 11:28:15;;;;;;;0.60;0.50;;;;;;;42.21;20.80;98973.82;109668;1279;99221;-62
2023/10/07 11:30:49;;;;;;;1.60;0.80;;;;;;;42.36;20.44;98965.20;109750;1279;22288;-63
2023/10/07 11:33:19;;;;;;;1.60;0.70;;;;;;;42.44;20.07;98967.86;109723;1280;100989;-64
2023/10/07 11:35:59;;;;;;;0.60;0.60;;;;;;;42.10;19.53;98964.52;109744;1280;22752;-64
2023/10/07 11:38:30;;;;;;;0.50;0.50;;;;;;;42.28;19.49;98967.08;109561;1278;101109;-62
2023/10/07 11:41:00;;;;;;;0.80;0.60;;;;;;;42.32;18.75;98969.98;109743;1279;22289;-64
2023/10/07 11:43:29;;;;;;;0.60;0.60;;;;;;;42.15;18.68;98974.23;109814;1276;22296;-64
2023/10/07 11:45:59;;;;;;;0.60;0.60;;;;;;;41.41;18.33;98969.41;109630;1280;100090;-64
2023/10/07 11:48:30;;;;;;;0.60;0.50;;;;;;;40.08;18.05;98977.82;109775;1280;22157;-64
2023/10/07 11:51:00;;;;;;;0.50;0.40;;;;;;;37.86;17.89;98976.52;109640;1279;100145;-64
2023/10/07 11:53:28;;;;;;;0.30;0.30;;;;;;;37.06;17.92;98982.23;109774;1279;22254;-63
2023/10/07 11:55:57;;;;;;;0.20;0.20;;;;;;;36.30;17.82;98979.05;109740;1279;23067;-63
2023/10/07 11:58:27;;;;;;;0.70;0.30;;;;;;;35.47;17.78;98986.90;109709;1280;99831;-63
2023/10/07 12:01:07;;;;;;;0.10;0.10;;;;;;;33.81;17.29;98991.33;109707;1284;22537;-63
2023/10/07 12:03:50;;;;;;;0.20;0.20;;;;;;;31.69;17.56;99003.48;109542;1283;100293;-63
2023/10/07 12:06:22;;;;;;;0.10;0.10;;;;;;;31.21;17.72;99000.77;109538;1280;23032;-63
2023/10/07 12:08:52;;;;;;;0.60;0.20;;;;;;;30.94;17.77;98990.45;109649;1279;100031;-63
2023/10/07 12:11:29;;;;;;;8.30;0.20;;;;;;;29.98;17.88;98987.77;109784;1280;22283;-63
2023/10/07 12:14:01;;;;;;;0.60;0.20;;;;;;;28.29;18.26;98995.85;109639;1281;22952;-62
2023/10/07 12:16:32;;;;;;;0.30;0.10;;;;;;;27.06;18.39;98997.11;109672;1279;99592;-63
2023/10/07 12:19:02;;;;;;;0.40;0.20;;;;;;;26.17;18.61;98999.19;109734;1279;22282;-61
2023/10/07 12:21:30;;;;;;;0.00;0.00;;;;;;;25.75;19.23;98994.77;109671;1281;99248;-61
2023/10/07 12:24:01;;;;;;;1.80;0.10;;;;;;;25.71;19.40;98994.48;109675;1280;22310;-61
2023/10/07 12:26:31;;;;;;;0.60;0.20;;;;;;;24.97;19.41;99000.14;109680;1280;99364;-60
2023/10/07 12:29:02;;;;;;;0.50;0.20;;;;;;;23.57;19.89;99007.14;109720;1279;22338;-60
2023/10/07 12:31:31;;;;;;;0.50;0.20;;;;;;;22.46;20.16;99008.54;109489;1273;22313;-60